createdAt,value
2023-02-14T00:01:09.708Z,3.23
2023-02-14T00:03:36.968Z,3.24
2023-02-14T00:06:13.036Z,3.18
2023-02-14T00:08:44.150Z,3.15
2023-02-14T00:11:12.981Z,3.09
2023-02-14T00:13:39.869Z,3.12
2023-02-14T00:16:06.985Z,3.12
2023-02-14T00:18:52.719Z,3.09
2023-02-14T00:21:19.559Z,3.01
2023-02-14T00:23:46.363Z,2.78
2023-02-14T00:26:15.037Z,2.98
2023-02-14T00:28:42.263Z,2.95
2023-02-14T00:31:09.646Z,2.94
2023-02-14T00:33:36.675Z,2.99
2023-02-14T00:36:07.629Z,2.96
2023-02-14T00:38:35.056Z,2.86
2023-02-14T00:41:02.229Z,2.96
2023-02-14T00:43:29.571Z,2.85
2023-02-14T00:45:56.611Z,2.84
2023-02-14T00:48:23.520Z,2.77
2023-02-14T00:50:50.336Z,2.80
2023-02-14T00:53:17.129Z,2.82
2023-02-14T00:55:46.524Z,2.84
2023-02-14T00:58:13.428Z,2.75
2023-02-14T01:00:40.458Z,2.74
2023-02-14T01:03:07.501Z,2.76
2023-02-14T01:05:34.473Z,2.55
2023-02-14T01:08:01.280Z,2.70
2023-02-14T01:10:28.202Z,2.60
2023-02-14T01:12:55.124Z,2.55
2023-02-14T01:15:22.351Z,2.67
2023-02-14T01:17:49.325Z,2.65
2023-02-14T01:20:16.495Z,2.42
2023-02-14T01:22:43.347Z,2.61
2023-02-14T01:25:10.410Z,2.57
2023-02-14T01:27:37.380Z,2.58
2023-02-14T01:30:05.130Z,2.10
2023-02-14T01:32:33.206Z,2.53
2023-02-14T01:35:00.692Z,2.54
2023-02-14T01:37:27.821Z,2.41
2023-02-14T01:39:54.671Z,2.39
2023-02-14T01:42:21.547Z,2.43
2023-02-14T01:44:48.271Z,2.46
2023-02-14T01:47:16.494Z,2.47
2023-02-14T01:49:52.940Z,2.41
2023-02-14T01:52:29.860Z,2.45
2023-02-14T01:55:03.876Z,2.37
2023-02-14T01:57:42.075Z,2.45
2023-02-14T02:00:28.928Z,2.43
2023-02-14T02:02:59.045Z,2.43
2023-02-14T02:05:27.368Z,2.44
2023-02-14T02:07:57.743Z,2.31
2023-02-14T02:10:24.911Z,2.34
2023-02-14T02:12:53.690Z,2.37
2023-02-14T02:15:24.033Z,2.45
2023-02-14T02:18:05.567Z,2.31
2023-02-14T02:20:51.191Z,2.45
2023-02-14T02:24:02.779Z,2.38
2023-02-14T02:27:14.326Z,2.35
2023-02-14T02:29:56.167Z,2.39
2023-02-14T02:32:32.020Z,2.39
2023-02-14T02:35:24.520Z,2.26
2023-02-14T02:38:25.303Z,2.34
2023-02-14T02:41:21.620Z,2.31
2023-02-14T02:44:06.454Z,2.24
2023-02-14T02:46:50.154Z,2.14
2023-02-14T02:49:39.604Z,2.17
2023-02-14T02:52:39.315Z,2.02
2023-02-14T02:55:53.860Z,1.98
2023-02-14T02:58:23.011Z,1.78
2023-02-14T03:00:53.494Z,1.92
2023-02-14T03:03:44.220Z,1.83
2023-02-14T03:06:11.081Z,1.94
2023-02-14T03:08:37.923Z,2.03
2023-02-14T03:11:05.647Z,1.98
2023-02-14T03:14:22.869Z,1.98
2023-02-14T03:17:04.509Z,1.94
2023-02-14T03:20:17.549Z,1.91
2023-02-14T03:23:00.663Z,1.87
2023-02-14T03:25:51.358Z,1.85
2023-02-14T03:28:38.852Z,1.83
2023-02-14T03:31:18.487Z,1.83
2023-02-14T03:34:00.564Z,1.87
2023-02-14T03:36:39.764Z,1.85
2023-02-14T03:39:17.235Z,1.83
2023-02-14T03:41:53.879Z,1.85
2023-02-14T03:44:28.416Z,1.88
2023-02-14T03:47:04.969Z,1.80
2023-02-14T03:49:38.658Z,1.76
2023-02-14T03:52:07.099Z,1.79
2023-02-14T03:54:35.697Z,1.81
2023-02-14T03:57:20.031Z,1.56
2023-02-14T03:59:47.821Z,1.70
2023-02-14T04:02:23.794Z,1.76
2023-02-14T04:04:52.537Z,1.76
2023-02-14T04:07:22.168Z,1.76
2023-02-14T04:09:49.957Z,1.71
2023-02-14T04:12:26.519Z,1.70
2023-02-14T04:14:59.378Z,1.66
2023-02-14T04:17:44.657Z,1.58
2023-02-14T04:20:11.877Z,1.61
2023-02-14T04:22:38.678Z,1.68
2023-02-14T04:25:05.776Z,1.54
2023-02-14T04:27:32.730Z,1.60
2023-02-14T04:29:59.539Z,1.61
2023-02-14T04:32:26.560Z,1.60
2023-02-14T04:34:53.738Z,1.64
2023-02-14T04:37:20.890Z,1.50
2023-02-14T04:39:47.745Z,1.64
2023-02-14T04:42:14.648Z,1.67
2023-02-14T04:44:42.086Z,1.62
2023-02-14T04:47:09.131Z,1.51
2023-02-14T04:49:36.765Z,1.65
2023-02-14T04:52:04.463Z,1.65
2023-02-14T04:54:31.661Z,1.65
2023-02-14T04:56:58.631Z,1.64
2023-02-14T04:59:25.706Z,1.57
2023-02-14T05:01:53.335Z,1.59
2023-02-14T05:04:20.659Z,1.53
2023-02-14T05:06:47.552Z,1.57
2023-02-14T05:09:14.376Z,1.50
2023-02-14T05:11:41.169Z,1.50
2023-02-14T05:14:08.083Z,1.47
2023-02-14T05:16:35.024Z,1.46
2023-02-14T05:19:01.906Z,1.46
2023-02-14T05:21:28.816Z,1.37
2023-02-14T05:23:55.643Z,1.43
2023-02-14T05:26:22.588Z,1.39
2023-02-14T05:28:49.395Z,1.36
2023-02-14T05:31:16.771Z,1.38
2023-02-14T05:33:43.780Z,1.42
2023-02-14T05:36:11.011Z,1.23
2023-02-14T05:38:37.904Z,1.35
2023-02-14T05:41:04.925Z,1.33
2023-02-14T05:43:31.778Z,1.09
2023-02-14T05:45:59.224Z,1.27
2023-02-14T05:48:26.201Z,1.28
2023-02-14T05:50:53.308Z,1.33
2023-02-14T05:53:20.174Z,1.34
2023-02-14T05:55:47.492Z,1.30
2023-02-14T05:58:14.465Z,1.35
2023-02-14T06:00:41.676Z,1.33
2023-02-14T06:03:08.832Z,1.31
2023-02-14T06:05:35.849Z,1.28
2023-02-14T06:08:02.759Z,1.29
2023-02-14T06:10:29.782Z,1.27
2023-02-14T06:12:56.603Z,1.28
2023-02-14T06:15:24.048Z,1.31
2023-02-14T06:17:53.478Z,1.25
2023-02-14T06:20:21.345Z,1.31
2023-02-14T06:22:48.310Z,1.30
2023-02-14T06:25:15.178Z,1.25
2023-02-14T06:27:42.385Z,1.25
2023-02-14T06:30:10.601Z,1.16
2023-02-14T06:32:37.474Z,1.28
2023-02-14T06:35:05.024Z,1.30
2023-02-14T06:37:31.913Z,1.16
2023-02-14T06:39:58.696Z,1.28
2023-02-14T06:42:25.916Z,1.19
2023-02-14T06:44:52.732Z,1.13
2023-02-14T06:47:19.648Z,1.18
2023-02-14T06:49:46.422Z,1.30
2023-02-14T06:52:13.253Z,1.24
2023-02-14T06:54:41.013Z,1.27
2023-02-14T06:57:07.895Z,1.22
2023-02-14T06:59:35.132Z,1.15
2023-02-14T07:02:02.241Z,1.25
2023-02-14T07:04:29.273Z,1.28
2023-02-14T07:06:56.155Z,1.21
2023-02-14T07:09:23.486Z,1.23
2023-02-14T07:11:50.344Z,1.20
2023-02-14T07:14:17.225Z,1.18
2023-02-14T07:16:44.166Z,1.29
2023-02-14T07:19:11.075Z,1.31
2023-02-14T07:21:37.977Z,1.23
2023-02-14T07:24:04.824Z,1.37
2023-02-14T07:26:31.650Z,1.12
2023-02-14T07:28:58.549Z,1.43
2023-02-14T07:31:25.584Z,1.44
2023-02-14T07:33:52.915Z,1.49
2023-02-14T07:36:19.785Z,1.51
2023-02-14T07:38:46.620Z,1.34
2023-02-14T07:41:13.469Z,1.53
2023-02-14T07:43:40.287Z,1.53
2023-02-14T07:46:07.205Z,1.60
2023-02-14T07:48:34.749Z,1.60
2023-02-14T07:51:02.507Z,1.56
2023-02-14T07:53:29.721Z,1.50
2023-02-14T07:55:56.566Z,1.44
2023-02-14T07:58:23.585Z,1.62
2023-02-14T08:00:51.217Z,1.59
2023-02-14T08:03:18.334Z,1.56
2023-02-14T08:05:45.159Z,1.74
2023-02-14T08:08:11.927Z,1.81
2023-02-14T08:10:38.704Z,1.76
2023-02-14T08:13:05.555Z,1.88
2023-02-14T08:15:53.414Z,1.93
2023-02-14T08:18:23.190Z,2.00
2023-02-14T08:20:50.327Z,2.00
2023-02-14T08:23:19.291Z,2.05
2023-02-14T08:25:48.955Z,2.07
2023-02-14T08:28:16.262Z,2.14
2023-02-14T08:30:45.016Z,2.13
2023-02-14T08:33:12.106Z,2.16
2023-02-14T08:35:39.183Z,2.28
2023-02-14T08:38:06.417Z,2.32
2023-02-14T08:40:36.203Z,2.36
2023-02-14T08:43:05.546Z,2.40
2023-02-14T08:45:32.851Z,2.39
2023-02-14T08:48:11.643Z,2.34
2023-02-14T08:50:39.784Z,2.50
2023-02-14T08:53:12.104Z,2.36
2023-02-14T08:55:40.002Z,2.58
2023-02-14T08:58:07.831Z,2.53
2023-02-14T09:00:35.167Z,2.51
2023-02-14T09:03:02.191Z,2.65
2023-02-14T09:05:29.235Z,2.66
2023-02-14T09:07:56.690Z,2.70
2023-02-14T09:10:25.043Z,2.72
2023-02-14T09:12:52.373Z,2.82
2023-02-14T09:15:19.509Z,2.85
2023-02-14T09:17:47.365Z,2.82
2023-02-14T09:20:15.712Z,2.89
2023-02-14T09:22:42.694Z,2.80
2023-02-14T09:25:09.710Z,3.00
2023-02-14T09:27:37.026Z,3.06
2023-02-14T09:30:06.621Z,3.05
2023-02-14T09:32:33.879Z,3.04
2023-02-14T09:35:19.759Z,3.06
2023-02-14T09:38:04.826Z,3.09
2023-02-14T09:40:34.212Z,3.18
2023-02-14T09:43:22.166Z,3.23
2023-02-14T09:45:55.060Z,3.07
2023-02-14T09:48:38.358Z,3.27
2023-02-14T09:51:15.417Z,3.32
2023-02-14T09:53:57.073Z,3.36
2023-02-14T09:56:54.242Z,3.30
2023-02-14T09:59:27.548Z,3.54
2023-02-14T10:02:26.734Z,3.46
2023-02-14T10:05:22.100Z,3.58
2023-02-14T10:08:05.715Z,3.64
2023-02-14T10:10:46.808Z,3.72
2023-02-14T10:13:41.205Z,3.79
2023-02-14T10:16:44.244Z,3.76
2023-02-14T10:19:52.357Z,3.89
2023-02-14T10:22:25.039Z,3.81
2023-02-14T10:25:01.761Z,3.84
2023-02-14T10:27:44.649Z,3.78
2023-02-14T10:30:22.451Z,3.84
2023-02-14T10:33:25.573Z,3.87
2023-02-14T10:36:09.987Z,3.80
2023-02-14T10:38:51.502Z,3.89
2023-02-14T10:42:11.578Z,3.90
2023-02-14T10:44:58.808Z,3.93
2023-02-14T10:48:06.247Z,3.96
2023-02-14T10:50:52.404Z,4.11
2023-02-14T10:54:06.114Z,4.16
2023-02-14T10:56:39.746Z,4.24
2023-02-14T10:59:25.241Z,4.22
2023-02-14T11:01:55.158Z,4.21
2023-02-14T11:04:24.800Z,4.33
2023-02-14T11:06:52.721Z,4.44
2023-02-14T11:09:20.926Z,4.54
2023-02-14T11:11:54.457Z,4.52
2023-02-14T11:14:33.188Z,4.71
2023-02-14T11:17:26.229Z,4.87
2023-02-14T11:20:06.261Z,4.74
2023-02-14T11:22:35.168Z,4.94
2023-02-14T11:25:22.528Z,4.93
2023-02-14T11:28:05.497Z,5.04
2023-02-14T11:30:41.010Z,5.20
2023-02-14T11:33:23.796Z,5.63
2023-02-14T11:35:54.127Z,5.93
2023-02-14T11:38:40.594Z,6.10
2023-02-14T11:41:11.899Z,6.06
2023-02-14T11:43:42.568Z,6.30
2023-02-14T11:46:24.420Z,6.24
2023-02-14T11:49:01.423Z,6.13
2023-02-14T11:51:37.891Z,6.47
2023-02-14T11:54:06.199Z,6.44
2023-02-14T11:57:27.684Z,6.65
2023-02-14T11:59:57.182Z,6.67
2023-02-14T12:02:32.473Z,6.48
2023-02-14T12:05:05.639Z,6.38
2023-02-14T12:07:38.057Z,6.57
2023-02-14T12:10:31.151Z,6.86
2023-02-14T12:13:10.063Z,7.04
2023-02-14T12:15:43.903Z,6.92
2023-02-14T12:18:41.566Z,6.81
2023-02-14T12:21:40.088Z,6.71
2023-02-14T12:24:30.477Z,6.68
2023-02-14T12:27:22.475Z,6.62
2023-02-14T12:30:01.405Z,6.99
2023-02-14T12:32:30.902Z,7.32
2023-02-14T12:35:14.715Z,7.70
2023-02-14T12:38:30.404Z,7.68
2023-02-14T12:41:40.941Z,7.41
2023-02-14T12:44:43.670Z,7.62
2023-02-14T12:47:13.338Z,7.50
2023-02-14T12:50:20.461Z,7.54
2023-02-14T12:53:01.693Z,7.48
2023-02-14T12:55:48.895Z,7.56
2023-02-14T12:58:46.629Z,7.57
2023-02-14T13:01:36.761Z,7.67
2023-02-14T13:04:35.139Z,7.66
2023-02-14T13:07:25.119Z,7.79
2023-02-14T13:10:12.446Z,7.78
2023-02-14T13:13:07.833Z,7.77
2023-02-14T13:16:12.847Z,7.84
2023-02-14T13:19:01.690Z,7.82
2023-02-14T13:21:35.770Z,7.90
2023-02-14T13:24:17.009Z,7.89
2023-02-14T13:26:50.141Z,7.82
2023-02-14T13:29:23.511Z,7.99
2023-02-14T13:32:02.777Z,8.03
2023-02-14T13:34:50.501Z,8.19
2023-02-14T13:37:21.895Z,8.18
2023-02-14T13:39:54.905Z,8.33
2023-02-14T13:42:59.016Z,8.30
2023-02-14T13:45:37.496Z,8.47
2023-02-14T13:48:20.306Z,8.51
2023-02-14T13:51:08.221Z,8.50
2023-02-14T13:53:42.749Z,8.54
2023-02-14T13:56:12.552Z,8.69
2023-02-14T13:58:54.310Z,8.66
2023-02-14T14:01:39.185Z,8.63
2023-02-14T14:04:28.185Z,8.70
2023-02-14T14:07:03.752Z,8.81
2023-02-14T14:09:42.719Z,8.82
2023-02-14T14:12:27.820Z,8.84
2023-02-14T14:15:06.977Z,8.92
2023-02-14T14:17:46.067Z,8.93
2023-02-14T14:20:29.829Z,8.96
2023-02-14T14:22:58.768Z,9.04
2023-02-14T14:25:33.354Z,9.05
2023-02-14T14:28:00.786Z,9.01
2023-02-14T14:30:35.678Z,9.00
2023-02-14T14:33:25.903Z,8.98
2023-02-14T14:36:22.332Z,9.01
2023-02-14T14:38:53.564Z,9.03
2023-02-14T14:41:29.043Z,9.08
2023-02-14T14:43:56.039Z,9.16
2023-02-14T14:46:23.695Z,9.15
2023-02-14T14:48:54.488Z,9.16
2023-02-14T14:51:34.053Z,9.18
2023-02-14T14:54:15.571Z,9.02
2023-02-14T14:57:01.453Z,9.28
2023-02-14T14:59:40.557Z,9.29
2023-02-14T15:02:29.915Z,9.33
2023-02-14T15:04:56.862Z,9.35
2023-02-14T15:07:33.769Z,9.34
2023-02-14T15:10:01.249Z,9.40
2023-02-14T15:12:48.191Z,9.43
2023-02-14T15:15:18.046Z,9.35
2023-02-14T15:17:46.103Z,9.42
2023-02-14T15:20:22.946Z,9.49
2023-02-14T15:22:52.050Z,9.40
2023-02-14T15:25:32.244Z,9.56
2023-02-14T15:27:59.522Z,9.44
2023-02-14T15:30:33.961Z,9.61
2023-02-14T15:33:03.436Z,9.53
2023-02-14T15:35:36.951Z,9.62
2023-02-14T15:38:06.947Z,9.61
2023-02-14T15:40:35.682Z,9.62
2023-02-14T15:43:32.854Z,9.66
2023-02-14T15:46:26.371Z,9.65
2023-02-14T15:48:55.922Z,9.62
2023-02-14T15:51:30.093Z,9.64
2023-02-14T15:54:03.324Z,9.62
2023-02-14T15:56:48.864Z,9.62
2023-02-14T15:59:24.033Z,9.65
2023-02-14T16:02:20.761Z,9.63
2023-02-14T16:04:47.706Z,9.60
2023-02-14T16:07:29.582Z,9.48
2023-02-14T16:10:26.387Z,9.43
2023-02-14T16:13:09.654Z,9.43
2023-02-14T16:15:42.051Z,9.37
2023-02-14T16:18:32.863Z,9.32
2023-02-14T16:21:27.641Z,9.36
2023-02-14T16:24:10.795Z,9.36
2023-02-14T16:26:42.008Z,9.24
2023-02-14T16:29:12.202Z,9.14
2023-02-14T16:32:14.736Z,9.27
2023-02-14T16:34:41.038Z,9.19
2023-02-14T16:37:22.446Z,9.19
2023-02-14T16:39:51.506Z,9.07
2023-02-14T16:42:19.229Z,9.11
2023-02-14T16:44:47.852Z,9.00
2023-02-14T16:47:17.192Z,8.93
2023-02-14T16:49:44.312Z,8.98
2023-02-14T16:52:20.685Z,8.79
2023-02-14T16:54:48.644Z,8.87
2023-02-14T16:57:22.908Z,8.85
2023-02-14T16:59:50.616Z,8.80
2023-02-14T17:02:19.032Z,8.72
2023-02-14T17:04:46.010Z,8.65
2023-02-14T17:07:15.495Z,8.59
2023-02-14T17:09:53.430Z,8.50
2023-02-14T17:12:28.061Z,8.67
2023-02-14T17:14:59.290Z,8.66
2023-02-14T17:17:26.615Z,8.69
2023-02-14T17:19:53.602Z,8.66
2023-02-14T17:22:20.822Z,8.67
2023-02-14T17:24:47.668Z,8.62
2023-02-14T17:27:14.712Z,8.59
2023-02-14T17:29:41.849Z,8.55
2023-02-14T17:32:13.761Z,8.53
2023-02-14T17:34:41.091Z,8.50
2023-02-14T17:37:07.958Z,8.49
2023-02-14T17:39:35.060Z,8.43
2023-02-14T17:42:01.955Z,8.45
2023-02-14T17:44:32.343Z,8.46
2023-02-14T17:46:59.160Z,8.53
2023-02-14T17:49:26.710Z,8.40
2023-02-14T17:51:53.691Z,8.31
2023-02-14T17:54:20.569Z,8.37
2023-02-14T17:56:47.390Z,8.40
2023-02-14T17:59:14.213Z,8.40
2023-02-14T18:01:41.106Z,8.36
2023-02-14T18:04:08.088Z,8.30
2023-02-14T18:06:35.361Z,8.24
2023-02-14T18:09:06.223Z,8.28
2023-02-14T18:11:33.099Z,8.28
2023-02-14T18:14:01.579Z,8.23
2023-02-14T18:16:28.707Z,8.22
2023-02-14T18:18:55.541Z,8.19
2023-02-14T18:21:24.457Z,8.17
2023-02-14T18:23:51.957Z,8.08
2023-02-14T18:26:19.506Z,8.08
2023-02-14T18:28:46.442Z,8.04
2023-02-14T18:31:16.683Z,7.98
2023-02-14T18:33:45.235Z,7.94
2023-02-14T18:36:15.621Z,7.95
2023-02-14T18:38:44.882Z,7.94
2023-02-14T18:41:15.694Z,7.88
2023-02-14T18:43:44.411Z,7.86
2023-02-14T18:46:17.688Z,7.67
2023-02-14T18:48:45.007Z,7.75
2023-02-14T18:51:22.241Z,7.59
2023-02-14T18:53:52.177Z,7.55
2023-02-14T18:56:22.329Z,7.60
2023-02-14T18:58:52.829Z,7.56
2023-02-14T19:01:29.151Z,7.53
2023-02-14T19:03:59.532Z,7.41
2023-02-14T19:06:29.462Z,7.34
2023-02-14T19:08:57.365Z,7.40
2023-02-14T19:11:31.577Z,7.23
2023-02-14T19:14:02.097Z,7.26
2023-02-14T19:16:33.264Z,7.25
2023-02-14T19:19:02.406Z,7.21
2023-02-14T19:21:33.998Z,7.14
2023-02-14T19:24:03.479Z,7.12
2023-02-14T19:26:34.904Z,7.02
2023-02-14T19:29:05.458Z,6.94
2023-02-14T19:31:37.419Z,6.89
2023-02-14T19:34:06.225Z,6.77
2023-02-14T19:36:36.349Z,6.74
2023-02-14T19:39:03.754Z,6.56
2023-02-14T19:41:34.505Z,6.63
2023-02-14T19:44:04.673Z,6.52
2023-02-14T19:46:33.007Z,6.49
2023-02-14T19:49:01.339Z,6.33
2023-02-14T19:51:32.271Z,6.37
2023-02-14T19:54:02.136Z,6.34
2023-02-14T19:56:32.822Z,6.35
2023-02-14T19:58:59.858Z,6.31
2023-02-14T20:01:33.666Z,6.23
2023-02-14T20:04:01.093Z,6.12
2023-02-14T20:06:29.410Z,6.03
2023-02-14T20:08:56.427Z,5.92
2023-02-14T20:11:49.817Z,5.96
2023-02-14T20:14:24.520Z,5.92
2023-02-14T20:16:53.502Z,5.89
2023-02-14T20:19:24.244Z,5.92
2023-02-14T20:21:51.500Z,5.85
2023-02-14T20:24:23.188Z,5.75
2023-02-14T20:26:51.737Z,5.82
2023-02-14T20:29:20.980Z,5.74
2023-02-14T20:31:52.534Z,5.73
2023-02-14T20:34:20.218Z,5.63
2023-02-14T20:36:55.701Z,5.56
2023-02-14T20:39:28.357Z,5.62
2023-02-14T20:41:55.196Z,5.44
2023-02-14T20:44:22.525Z,5.56
2023-02-14T20:46:52.543Z,5.56
2023-02-14T20:49:25.248Z,5.54
2023-02-14T20:51:52.481Z,5.53
2023-02-14T20:54:22.717Z,5.53
2023-02-14T20:56:50.779Z,5.44
2023-02-14T20:59:27.189Z,5.38
2023-02-14T21:01:56.040Z,5.38
2023-02-14T21:04:24.005Z,5.17
2023-02-14T21:06:51.332Z,5.22
2023-02-14T21:09:20.364Z,5.19
2023-02-14T21:11:47.376Z,5.02
2023-02-14T21:14:14.540Z,5.22
2023-02-14T21:16:41.388Z,5.15
2023-02-14T21:19:08.817Z,5.17
2023-02-14T21:21:37.632Z,5.09
2023-02-14T21:24:15.610Z,5.07
2023-02-14T21:26:43.731Z,5.06
2023-02-14T21:29:10.849Z,5.09
2023-02-14T21:31:38.623Z,5.11
2023-02-14T21:34:05.948Z,4.99
2023-02-14T21:36:37.294Z,4.75
2023-02-14T21:39:05.934Z,4.91
2023-02-14T21:41:34.418Z,4.84
2023-02-14T21:44:02.513Z,4.81
2023-02-14T21:46:33.317Z,4.73
2023-02-14T21:49:20.506Z,4.80
2023-02-14T21:51:48.337Z,4.71
2023-02-14T21:54:17.556Z,4.75
2023-02-14T21:56:45.140Z,4.73
2023-02-14T21:59:12.733Z,4.73
2023-02-14T22:01:42.123Z,4.60
2023-02-14T22:04:12.107Z,4.46
2023-02-14T22:06:41.682Z,4.57
2023-02-14T22:09:10.793Z,4.62
2023-02-14T22:11:37.738Z,4.50
2023-02-14T22:14:04.678Z,4.32
2023-02-14T22:16:31.622Z,4.62
2023-02-14T22:18:58.489Z,4.58
2023-02-14T22:21:26.781Z,4.58
2023-02-14T22:23:55.305Z,4.49
2023-02-14T22:26:24.244Z,4.51
2023-02-14T22:28:55.766Z,4.39
2023-02-14T22:31:24.927Z,4.35
2023-02-14T22:33:52.036Z,4.34
2023-02-14T22:36:19.044Z,4.34
2023-02-14T22:38:46.005Z,4.26
2023-02-14T22:41:17.000Z,4.27
2023-02-14T22:43:44.590Z,4.26
2023-02-14T22:46:24.719Z,4.29
2023-02-14T22:48:53.371Z,4.24
2023-02-14T22:51:36.021Z,4.08
2023-02-14T22:54:09.198Z,4.12
2023-02-14T22:56:43.402Z,4.10
2023-02-14T22:59:25.064Z,4.06
2023-02-14T23:01:53.315Z,4.04
2023-02-14T23:04:22.280Z,4.01
2023-02-14T23:06:49.301Z,3.97
2023-02-14T23:09:16.340Z,3.97
2023-02-14T23:11:45.337Z,3.80
2023-02-14T23:14:32.744Z,3.88
2023-02-14T23:17:18.683Z,3.80
2023-02-14T23:20:05.036Z,3.80
2023-02-14T23:22:38.471Z,3.67
2023-02-14T23:25:11.273Z,3.75
2023-02-14T23:27:41.380Z,3.53
2023-02-14T23:30:12.536Z,3.67
2023-02-14T23:32:39.396Z,3.67
2023-02-14T23:35:06.893Z,3.53
2023-02-14T23:37:33.802Z,3.61
2023-02-14T23:40:00.685Z,3.28
2023-02-14T23:42:28.234Z,3.51
2023-02-14T23:45:15.175Z,3.53
2023-02-14T23:47:42.086Z,3.59
2023-02-14T23:50:09.464Z,3.47
2023-02-14T23:52:38.542Z,3.20
2023-02-14T23:55:06.308Z,3.45
2023-02-14T23:57:33.136Z,3.38
